createdAt,value
2022-09-12T00:00:28.637Z,3.25
2022-09-12T00:03:21.181Z,2.45
2022-09-12T00:05:53.913Z,2.22
2022-09-12T00:08:26.833Z,2.05
2022-09-12T00:11:05.641Z,1.83
2022-09-12T00:13:41.671Z,3.65
2022-09-12T00:16:21.297Z,4.40
2022-09-12T00:18:54.413Z,2.92
2022-09-12T00:21:27.705Z,3.63
2022-09-12T00:24:00.315Z,2.92
2022-09-12T00:26:33.501Z,3.78
2022-09-12T00:29:06.065Z,3.78
2022-09-12T00:31:39.177Z,3.60
2022-09-12T00:34:12.646Z,3.92
2022-09-12T00:36:45.485Z,3.45
2022-09-12T00:39:18.206Z,3.30
2022-09-12T00:41:51.035Z,3.55
2022-09-12T00:44:23.637Z,3.35
2022-09-12T00:47:02.197Z,3.30
2022-09-12T00:49:49.782Z,2.63
2022-09-12T00:52:36.029Z,4.25
2022-09-12T00:55:15.712Z,3.20
2022-09-12T00:57:54.462Z,2.78
2022-09-12T01:00:28.207Z,3.85
2022-09-12T01:03:07.873Z,3.67
2022-09-12T01:05:47.006Z,2.90
2022-09-12T01:08:20.489Z,3.45
2022-09-12T01:10:53.285Z,3.95
2022-09-12T01:13:27.081Z,2.95
2022-09-12T01:15:59.789Z,2.42
2022-09-12T01:18:57.889Z,2.47
2022-09-12T01:21:39.246Z,2.75
2022-09-12T01:24:33.601Z,2.38
2022-09-12T01:27:06.205Z,2.83
2022-09-12T01:30:00.719Z,3.15
2022-09-12T01:32:48.618Z,2.25
2022-09-12T01:35:58.579Z,2.10
2022-09-12T01:38:47.332Z,3.70
2022-09-12T01:41:26.797Z,3.08
2022-09-12T01:44:08.142Z,2.80
2022-09-12T01:46:56.013Z,2.28
2022-09-12T01:50:05.216Z,3.17
2022-09-12T01:52:47.295Z,5.85
2022-09-12T01:55:25.706Z,4.57
2022-09-12T01:58:12.079Z,4.25
2022-09-12T02:00:55.468Z,4.13
2022-09-12T02:03:33.849Z,3.17
2022-09-12T02:06:18.591Z,5.03
2022-09-12T02:08:55.181Z,2.50
2022-09-12T02:11:31.771Z,2.80
2022-09-12T02:14:15.797Z,4.28
2022-09-12T02:17:16.767Z,2.75
2022-09-12T02:19:54.963Z,2.72
2022-09-12T02:22:29.663Z,3.53
2022-09-12T02:25:05.967Z,2.85
2022-09-12T02:27:42.556Z,2.85
2022-09-12T02:30:16.759Z,2.92
2022-09-12T02:32:58.858Z,3.47
2022-09-12T02:35:48.072Z,2.95
2022-09-12T02:38:45.428Z,3.13
2022-09-12T02:41:20.779Z,2.85
2022-09-12T02:43:54.610Z,3.00
2022-09-12T02:46:41.199Z,3.05
2022-09-12T02:49:14.723Z,3.38
2022-09-12T02:51:48.855Z,4.60
2022-09-12T02:54:21.827Z,3.05
2022-09-12T02:56:54.597Z,3.08
2022-09-12T02:59:27.432Z,3.80
2022-09-12T03:02:12.391Z,3.10
2022-09-12T03:05:23.328Z,2.90
2022-09-12T03:08:05.384Z,3.05
2022-09-12T03:10:48.513Z,3.15
2022-09-12T03:13:33.209Z,2.75
2022-09-12T03:16:29.751Z,2.22
2022-09-12T03:19:21.356Z,3.65
2022-09-12T03:22:00.253Z,3.92
2022-09-12T03:24:57.681Z,3.47
2022-09-12T03:27:35.337Z,4.25
2022-09-12T03:30:09.158Z,3.83
2022-09-12T03:32:50.519Z,3.17
2022-09-12T03:35:25.184Z,4.55
2022-09-12T03:37:57.824Z,3.00
2022-09-12T03:40:30.637Z,2.80
2022-09-12T03:43:04.944Z,3.75
2022-09-12T03:45:38.833Z,3.15
2022-09-12T03:48:11.976Z,3.58
2022-09-12T03:50:44.793Z,4.20
2022-09-12T03:53:17.614Z,3.58
2022-09-12T03:55:50.429Z,2.97
2022-09-12T03:58:23.409Z,3.28
2022-09-12T04:00:56.436Z,3.90
2022-09-12T04:03:29.013Z,3.72
2022-09-12T04:06:02.074Z,3.25
2022-09-12T04:08:35.953Z,3.63
2022-09-12T04:11:12.556Z,3.15
2022-09-12T04:13:46.183Z,3.25
2022-09-12T04:16:19.486Z,3.65
2022-09-12T04:18:52.110Z,3.63
2022-09-12T04:21:25.096Z,3.55
2022-09-12T04:23:57.698Z,4.55
2022-09-12T04:26:32.294Z,4.63
2022-09-12T04:29:04.898Z,3.80
2022-09-12T04:31:37.728Z,4.68
2022-09-12T04:34:10.698Z,4.93
2022-09-12T04:36:43.609Z,5.05
2022-09-12T04:39:17.125Z,3.70
2022-09-12T04:41:50.154Z,3.35
2022-09-12T04:44:22.690Z,3.25
2022-09-12T04:46:55.514Z,4.07
2022-09-12T04:49:28.109Z,4.50
2022-09-12T04:52:00.899Z,3.83
2022-09-12T04:54:34.372Z,4.68
2022-09-12T04:57:07.441Z,3.50
2022-09-12T04:59:40.479Z,3.95
2022-09-12T05:02:13.393Z,3.15
2022-09-12T05:04:47.027Z,4.93
2022-09-12T05:07:20.088Z,4.55
2022-09-12T05:09:52.844Z,6.18
2022-09-12T05:12:25.600Z,5.97
2022-09-12T05:14:58.159Z,6.72
2022-09-12T05:17:31.115Z,3.65
2022-09-12T05:20:04.390Z,5.85
2022-09-12T05:22:37.148Z,5.65
2022-09-12T05:25:09.947Z,3.90
2022-09-12T05:27:43.502Z,3.95
2022-09-12T05:30:18.097Z,5.97
2022-09-12T05:32:50.977Z,5.57
2022-09-12T05:35:23.629Z,3.28
2022-09-12T05:37:56.541Z,4.60
2022-09-12T05:40:31.646Z,5.40
2022-09-12T05:43:04.994Z,4.75
2022-09-12T05:45:37.801Z,3.30
2022-09-12T05:48:10.534Z,2.83
2022-09-12T05:50:43.753Z,3.70
2022-09-12T05:53:17.395Z,4.03
2022-09-12T05:55:53.892Z,5.15
2022-09-12T05:58:34.501Z,3.95
2022-09-12T06:01:11.532Z,2.30
2022-09-12T06:03:49.687Z,4.03
2022-09-12T06:06:25.371Z,3.25
2022-09-12T06:09:03.739Z,3.92
2022-09-12T06:11:40.846Z,3.55
2022-09-12T06:14:18.014Z,2.80
2022-09-12T06:16:53.792Z,3.90
2022-09-12T06:19:34.486Z,3.35
2022-09-12T06:22:07.295Z,3.80
2022-09-12T06:24:40.123Z,3.50
2022-09-12T06:27:12.626Z,3.50
2022-09-12T06:29:46.113Z,3.33
2022-09-12T06:32:18.674Z,2.30
2022-09-12T06:34:52.070Z,3.70
2022-09-12T06:37:24.708Z,3.60
2022-09-12T06:39:57.741Z,3.17
2022-09-12T06:42:30.306Z,3.03
2022-09-12T06:45:03.114Z,2.15
2022-09-12T06:47:35.682Z,2.72
2022-09-12T06:50:09.170Z,3.03
2022-09-12T06:52:41.738Z,2.25
2022-09-12T06:55:18.927Z,2.28
2022-09-12T06:57:54.367Z,2.45
2022-09-12T07:00:28.162Z,2.28
2022-09-12T07:03:00.674Z,1.95
2022-09-12T07:05:34.249Z,2.47
2022-09-12T07:08:06.785Z,1.55
2022-09-12T07:10:39.605Z,1.67
2022-09-12T07:13:12.150Z,2.38
2022-09-12T07:15:45.302Z,2.05
2022-09-12T07:18:17.867Z,1.85
2022-09-12T07:20:50.566Z,2.70
2022-09-12T07:23:23.084Z,1.35
2022-09-12T07:25:57.265Z,2.83
2022-09-12T07:28:34.452Z,1.80
2022-09-12T07:31:14.497Z,2.72
2022-09-12T07:33:51.171Z,2.13
2022-09-12T07:36:26.631Z,2.83
2022-09-12T07:38:59.596Z,2.00
2022-09-12T07:41:36.402Z,2.15
2022-09-12T07:44:08.954Z,1.83
2022-09-12T07:46:41.717Z,2.00
2022-09-12T07:49:14.289Z,1.85
2022-09-12T07:51:47.034Z,1.58
2022-09-12T07:54:19.955Z,1.63
2022-09-12T07:56:52.913Z,2.00
2022-09-12T07:59:48.916Z,1.60
2022-09-12T08:02:18.605Z,1.63
2022-09-12T08:04:51.567Z,1.25
2022-09-12T08:07:24.338Z,1.70
2022-09-12T08:09:57.593Z,1.38
2022-09-12T08:12:32.310Z,1.40
2022-09-12T08:15:05.482Z,1.70
2022-09-12T08:17:38.678Z,1.40
2022-09-12T08:20:12.322Z,0.90
2022-09-12T08:22:45.326Z,0.90
2022-09-12T08:25:18.014Z,1.10
2022-09-12T08:27:50.807Z,1.13
2022-09-12T08:30:23.557Z,0.80
2022-09-12T08:32:56.811Z,1.25
2022-09-12T08:35:29.375Z,1.23
2022-09-12T08:38:02.109Z,1.15
2022-09-12T08:40:48.650Z,1.20
2022-09-12T08:43:36.447Z,1.00
2022-09-12T08:46:18.536Z,1.27
2022-09-12T08:48:52.557Z,0.98
2022-09-12T08:51:25.566Z,1.25
2022-09-12T08:54:00.569Z,1.00
2022-09-12T08:56:37.149Z,1.40
2022-09-12T08:59:10.588Z,1.15
2022-09-12T09:01:45.564Z,1.52
2022-09-12T09:04:33.677Z,1.33
2022-09-12T09:07:18.544Z,1.45
2022-09-12T09:10:00.424Z,0.90
2022-09-12T09:12:38.765Z,1.10
2022-09-12T09:15:29.650Z,1.00
2022-09-12T09:18:24.104Z,0.95
2022-09-12T09:21:06.921Z,2.83
2022-09-12T09:23:44.362Z,3.95
2022-09-12T09:26:29.677Z,1.13
2022-09-12T09:29:18.854Z,0.93
2022-09-12T09:31:57.827Z,1.00
2022-09-12T09:34:34.374Z,0.57
2022-09-12T09:37:16.373Z,1.05
2022-09-12T09:40:07.444Z,1.20
2022-09-12T09:42:54.019Z,0.80
2022-09-12T09:45:29.788Z,0.95
2022-09-12T09:48:26.717Z,0.98
2022-09-12T09:51:01.961Z,1.00
2022-09-12T09:53:46.857Z,0.90
2022-09-12T09:56:33.253Z,1.45
2022-09-12T09:59:10.313Z,0.60
2022-09-12T10:02:03.877Z,0.90
2022-09-12T10:04:41.851Z,0.95
2022-09-12T10:07:19.909Z,0.88
2022-09-12T10:10:15.397Z,1.10
2022-09-12T10:12:47.956Z,1.20
2022-09-12T10:15:26.634Z,1.27
2022-09-12T10:18:00.097Z,0.60
2022-09-12T10:20:39.133Z,0.60
2022-09-12T10:23:34.934Z,0.95
2022-09-12T10:26:15.084Z,1.00
2022-09-12T10:28:53.551Z,0.90
2022-09-12T10:31:43.158Z,0.70
2022-09-12T10:34:43.972Z,0.95
2022-09-12T10:37:34.792Z,0.70
2022-09-12T10:40:22.077Z,1.02
2022-09-12T10:42:55.134Z,0.90
2022-09-12T10:45:37.492Z,1.05
2022-09-12T10:48:31.745Z,0.60
2022-09-12T10:51:04.425Z,0.75
2022-09-12T10:53:43.697Z,1.10
2022-09-12T10:56:22.808Z,0.90
2022-09-12T10:59:01.375Z,0.80
2022-09-12T11:01:36.934Z,0.90
2022-09-12T11:04:31.601Z,0.82
2022-09-12T11:07:41.588Z,0.98
2022-09-12T11:13:31.376Z,0.90
2022-09-12T11:16:51.049Z,0.63
2022-09-12T11:19:51.015Z,1.23
2022-09-12T11:22:47.540Z,1.48
2022-09-12T11:25:39.436Z,0.70
2022-09-12T11:28:30.910Z,0.93
2022-09-12T11:31:23.521Z,0.57
2022-09-12T11:33:59.596Z,0.82
2022-09-12T11:37:12.577Z,0.95
2022-09-12T11:39:55.376Z,1.15
2022-09-12T11:42:37.920Z,0.98
2022-09-12T11:45:18.444Z,1.15
2022-09-12T11:47:55.853Z,0.60
2022-09-12T11:50:31.284Z,0.90
2022-09-12T11:53:23.972Z,0.80
2022-09-12T11:56:04.513Z,1.10
2022-09-12T11:58:38.730Z,1.35
2022-09-12T12:01:47.784Z,1.17
2022-09-12T12:04:28.236Z,0.90
2022-09-12T12:07:08.057Z,0.90
2022-09-12T12:09:52.266Z,0.88
2022-09-12T12:12:28.772Z,0.82
2022-09-12T12:15:02.931Z,1.00
2022-09-12T12:17:35.810Z,1.27
2022-09-12T12:20:17.988Z,0.90
2022-09-12T12:22:55.277Z,1.05
2022-09-12T12:25:51.588Z,1.08
2022-09-12T12:28:42.649Z,0.98
2022-09-12T12:31:15.853Z,1.02
2022-09-12T12:33:52.129Z,0.80
2022-09-12T12:36:40.404Z,0.50
2022-09-12T12:40:01.303Z,0.95
2022-09-12T12:42:57.877Z,1.00
2022-09-12T12:45:30.580Z,0.70
2022-09-12T12:48:11.374Z,0.90
2022-09-12T12:50:45.437Z,0.95
2022-09-12T12:53:20.231Z,1.23
2022-09-12T12:55:56.212Z,0.75
2022-09-12T12:58:37.565Z,0.82
2022-09-12T13:01:18.091Z,1.35
2022-09-12T13:06:41.605Z,0.70
2022-09-12T13:09:34.084Z,0.90
2022-09-12T13:12:11.356Z,0.70
2022-09-12T13:14:43.928Z,0.60
2022-09-12T13:17:34.683Z,0.63
2022-09-12T13:20:29.573Z,0.88
2022-09-12T13:23:02.632Z,0.75
2022-09-12T13:25:37.114Z,0.80
2022-09-12T13:28:13.038Z,0.65
2022-09-12T13:30:48.723Z,0.82
2022-09-12T13:33:40.087Z,1.10
2022-09-12T13:36:24.915Z,0.65
2022-09-12T13:39:01.051Z,0.90
2022-09-12T13:41:56.255Z,1.02
2022-09-12T13:44:34.704Z,0.88
2022-09-12T13:47:25.869Z,0.60
2022-09-12T13:49:59.366Z,1.05
2022-09-12T13:52:35.492Z,1.35
2022-09-12T13:55:23.487Z,0.70
2022-09-12T13:58:01.621Z,1.00
2022-09-12T14:00:35.153Z,0.40
2022-09-12T14:03:49.940Z,0.80
2022-09-12T14:06:23.246Z,0.55
2022-09-12T14:09:01.492Z,0.85
2022-09-12T14:11:37.580Z,0.70
2022-09-12T14:14:27.844Z,0.80
2022-09-12T14:17:00.712Z,0.90
2022-09-12T14:19:34.572Z,0.70
2022-09-12T14:22:12.108Z,0.73
2022-09-12T14:24:51.880Z,0.98
2022-09-12T14:30:06.927Z,0.68
2022-09-12T14:32:40.319Z,0.85
2022-09-12T14:35:19.938Z,1.02
2022-09-12T14:37:53.961Z,0.82
2022-09-12T14:40:26.705Z,1.17
2022-09-12T14:43:01.259Z,1.70
2022-09-12T14:45:33.972Z,1.63
2022-09-12T14:48:06.956Z,1.13
2022-09-12T14:50:39.573Z,1.10
2022-09-12T14:53:18.620Z,0.80
2022-09-12T14:56:09.256Z,0.80
2022-09-12T14:58:42.512Z,1.63
2022-09-12T15:01:15.120Z,0.60
2022-09-12T15:03:50.001Z,1.00
2022-09-12T15:06:32.193Z,0.68
2022-09-12T15:09:12.537Z,0.98
2022-09-12T15:11:45.142Z,0.70
2022-09-12T15:14:18.657Z,1.00
2022-09-12T15:16:51.219Z,0.80
2022-09-12T15:19:23.999Z,0.80
2022-09-12T15:21:56.631Z,1.00
2022-09-12T15:24:29.440Z,0.85
2022-09-12T15:27:02.228Z,0.98
2022-09-12T15:29:38.415Z,0.77
2022-09-12T15:32:15.149Z,0.80
2022-09-12T15:34:50.861Z,0.55
2022-09-12T15:37:24.692Z,0.60
2022-09-12T15:39:57.718Z,1.02
2022-09-12T15:42:31.422Z,0.80
2022-09-12T15:45:18.916Z,0.85
2022-09-12T15:47:51.969Z,0.63
2022-09-12T15:50:25.451Z,0.95
2022-09-12T15:52:59.054Z,1.10
2022-09-12T15:55:34.704Z,0.75
2022-09-12T15:58:10.790Z,0.90
2022-09-12T16:00:43.673Z,0.93
2022-09-12T16:03:22.498Z,0.80
2022-09-12T16:06:01.137Z,1.05
2022-09-12T16:08:34.713Z,0.90
2022-09-12T16:11:27.618Z,1.15
2022-09-12T16:14:00.132Z,1.58
2022-09-12T16:16:34.112Z,1.67
2022-09-12T16:19:06.790Z,1.30
2022-09-12T16:21:39.568Z,1.83
2022-09-12T16:24:12.553Z,1.00
2022-09-12T16:26:45.373Z,0.77
2022-09-12T16:29:18.045Z,0.90
2022-09-12T16:31:50.869Z,1.10
2022-09-12T16:34:23.663Z,1.20
2022-09-12T16:36:56.783Z,1.25
2022-09-12T16:39:30.038Z,1.00
2022-09-12T16:42:03.351Z,0.75
2022-09-12T16:44:35.905Z,1.20
2022-09-12T16:47:08.739Z,1.00
2022-09-12T16:49:41.321Z,1.20
2022-09-12T16:52:16.668Z,1.23
2022-09-12T16:54:49.419Z,1.02
2022-09-12T16:57:22.843Z,1.20
2022-09-12T16:59:55.355Z,1.23
2022-09-12T17:02:28.122Z,1.30
2022-09-12T17:05:00.787Z,1.58
2022-09-12T17:07:34.926Z,1.42
2022-09-12T17:10:08.536Z,1.15
2022-09-12T17:12:41.300Z,1.50
2022-09-12T17:15:14.529Z,1.23
2022-09-12T17:17:47.337Z,1.73
2022-09-12T17:20:19.898Z,2.25
2022-09-12T17:22:52.928Z,3.00
2022-09-12T17:25:27.871Z,2.17
2022-09-12T17:28:00.619Z,1.90
2022-09-12T17:30:37.301Z,2.45
2022-09-12T17:33:10.925Z,3.15
2022-09-12T17:35:43.718Z,1.98
2022-09-12T17:38:19.344Z,1.88
2022-09-12T17:40:59.588Z,2.17
2022-09-12T17:43:33.547Z,1.95
2022-09-12T17:46:06.667Z,3.97
2022-09-12T17:48:39.531Z,27.02
2022-09-12T17:51:14.362Z,20.30
2022-09-12T17:53:47.603Z,15.05
2022-09-12T17:56:20.381Z,12.88
2022-09-12T17:58:53.184Z,11.32
2022-09-12T18:01:45.816Z,10.98
2022-09-12T18:04:20.166Z,11.32
2022-09-12T18:06:54.130Z,11.65
2022-09-12T18:09:37.337Z,11.57
2022-09-12T18:12:10.619Z,10.68
2022-09-12T18:14:43.597Z,10.93
2022-09-12T18:17:16.803Z,12.43
2022-09-12T18:19:53.740Z,9.93
2022-09-12T18:22:26.641Z,10.93
2022-09-12T18:24:59.421Z,10.65
2022-09-12T18:27:32.117Z,9.82
2022-09-12T18:30:20.607Z,11.57
2022-09-12T18:32:54.302Z,11.40
2022-09-12T18:35:27.398Z,11.13
2022-09-12T18:38:00.002Z,9.00
2022-09-12T18:40:32.801Z,10.30
2022-09-12T18:43:05.473Z,10.35
2022-09-12T18:45:38.213Z,9.18
2022-09-12T18:48:11.138Z,9.57
2022-09-12T18:50:44.013Z,8.98
2022-09-12T18:53:16.705Z,9.13
2022-09-12T18:55:49.495Z,10.73
2022-09-12T18:58:22.023Z,9.77
2022-09-12T19:00:54.841Z,9.60
2022-09-12T19:03:27.533Z,9.63
2022-09-12T19:06:01.577Z,9.40
2022-09-12T19:08:35.160Z,7.88
2022-09-12T19:11:09.329Z,8.50
2022-09-12T19:13:44.945Z,8.80
2022-09-12T19:16:21.838Z,9.15
2022-09-12T19:18:58.621Z,7.68
2022-09-12T19:21:32.284Z,8.57
2022-09-12T19:24:10.132Z,9.38
2022-09-12T19:26:43.112Z,8.73
2022-09-12T19:29:16.746Z,7.65
2022-09-12T19:31:49.733Z,8.30
2022-09-12T19:34:22.318Z,8.02
2022-09-12T19:36:55.043Z,7.72
2022-09-12T19:39:27.703Z,8.07
2022-09-12T19:42:00.432Z,8.30
2022-09-12T19:44:32.970Z,8.07
2022-09-12T19:47:05.726Z,8.27
2022-09-12T19:49:38.257Z,9.00
2022-09-12T19:52:14.349Z,9.43
2022-09-12T19:54:49.434Z,7.68
2022-09-12T19:57:22.188Z,9.43
2022-09-12T19:59:55.533Z,7.65
2022-09-12T20:02:29.945Z,7.88
2022-09-12T20:05:02.528Z,8.10
2022-09-12T20:07:36.332Z,6.55
2022-09-12T20:10:18.770Z,7.72
2022-09-12T20:12:53.103Z,6.53
2022-09-12T20:15:25.694Z,7.85
2022-09-12T20:17:59.128Z,6.45
2022-09-12T20:20:31.838Z,7.07
2022-09-12T20:23:04.979Z,7.35
2022-09-12T20:25:37.846Z,7.55
2022-09-12T20:28:10.560Z,6.78
2022-09-12T20:30:43.127Z,7.70
2022-09-12T20:33:15.856Z,7.47
2022-09-12T20:35:48.401Z,7.07
2022-09-12T20:38:21.182Z,7.00
2022-09-12T20:40:53.882Z,7.38
2022-09-12T20:43:26.855Z,7.63
2022-09-12T20:45:59.597Z,6.85
2022-09-12T20:48:32.852Z,6.72
2022-09-12T20:51:06.594Z,8.50
2022-09-12T20:53:40.524Z,7.20
2022-09-12T20:56:14.582Z,6.82
2022-09-12T20:58:47.466Z,7.80
2022-09-12T21:01:20.670Z,6.70
2022-09-12T21:03:54.033Z,7.72
2022-09-12T21:06:27.091Z,6.68
2022-09-12T21:09:00.613Z,7.95
2022-09-12T21:11:33.411Z,7.82
2022-09-12T21:14:06.146Z,8.32
2022-09-12T21:16:38.801Z,6.70
2022-09-12T21:19:11.484Z,6.30
2022-09-12T21:21:44.018Z,7.47
2022-09-12T21:24:16.774Z,7.32
2022-09-12T21:26:49.346Z,7.82
2022-09-12T21:29:22.050Z,7.80
2022-09-12T21:31:54.604Z,8.13
2022-09-12T21:34:27.359Z,7.40
2022-09-12T21:36:59.953Z,8.07
2022-09-12T21:39:32.774Z,8.25
2022-09-12T21:42:05.464Z,7.63
2022-09-12T21:44:38.252Z,8.18
2022-09-12T21:47:10.817Z,9.13
2022-09-12T21:49:43.610Z,8.02
2022-09-12T21:52:16.127Z,7.85
2022-09-12T21:54:48.881Z,7.13
2022-09-12T21:57:21.493Z,7.43
2022-09-12T21:59:54.238Z,7.05
2022-09-12T22:02:28.462Z,6.78
2022-09-12T22:05:01.197Z,7.90
2022-09-12T22:07:33.872Z,6.30
2022-09-12T22:10:07.578Z,6.90
2022-09-12T22:12:45.353Z,6.90
2022-09-12T22:15:39.465Z,6.60
2022-09-12T22:18:12.062Z,6.40
2022-09-12T22:20:45.292Z,5.90
2022-09-12T22:23:36.384Z,6.28
2022-09-12T22:26:09.151Z,6.43
2022-09-12T22:28:42.752Z,7.38
2022-09-12T22:31:16.465Z,6.10
2022-09-12T22:33:49.361Z,6.53
2022-09-12T22:36:22.104Z,7.00
2022-09-12T22:38:56.204Z,6.63
2022-09-12T22:41:29.246Z,7.97
2022-09-12T22:44:01.955Z,6.18
2022-09-12T22:46:34.815Z,7.07
2022-09-12T22:49:07.609Z,7.38
2022-09-12T22:51:40.487Z,6.85
2022-09-12T22:54:13.143Z,7.10
2022-09-12T22:56:45.872Z,5.80
2022-09-12T22:59:18.424Z,6.28
2022-09-12T23:01:51.220Z,6.47
2022-09-12T23:04:23.761Z,6.65
2022-09-12T23:06:56.762Z,6.43
2022-09-12T23:09:32.140Z,6.65
2022-09-12T23:12:08.024Z,6.03
2022-09-12T23:14:40.577Z,6.50
2022-09-12T23:17:13.379Z,6.75
2022-09-12T23:19:46.077Z,7.05
2022-09-12T23:22:19.085Z,5.60
2022-09-12T23:24:51.612Z,7.15
2022-09-12T23:27:27.439Z,7.72
2022-09-12T23:29:59.984Z,6.45
2022-09-12T23:32:32.916Z,7.15
2022-09-12T23:35:05.844Z,6.65
2022-09-12T23:37:38.543Z,7.82
2022-09-12T23:40:11.396Z,6.68
2022-09-12T23:42:44.208Z,6.25
2022-09-12T23:45:16.825Z,6.80
2022-09-12T23:47:49.547Z,6.68
2022-09-12T23:50:22.055Z,6.50
2022-09-12T23:52:55.038Z,6.65
2022-09-12T23:55:27.560Z,7.18
2022-09-12T23:58:00.405Z,6.80
